sensor_id;sensor_type;location;lat;lon;timestamp;P1;durP1;ratioP1;P2;durP2;ratioP2
6251;SDS011;3159;52.414;9.784;2023-08-08T00:01:30;1.73;;;1.33;;
6251;SDS011;3159;52.414;9.784;2023-08-08T00:03:58;1.90;;;1.57;;
6251;SDS011;3159;52.414;9.784;2023-08-08T00:06:26;3.83;;;1.60;;
6251;SDS011;3159;52.414;9.784;2023-08-08T00:08:53;2.97;;;1.77;;
6251;SDS011;3159;52.414;9.784;2023-08-08T00:11:20;2.47;;;1.83;;
6251;SDS011;3159;52.414;9.784;2023-08-08T00:13:46;3.07;;;1.80;;
6251;SDS011;3159;52.414;9.784;2023-08-08T00:16:13;3.57;;;1.70;;
6251;SDS011;3159;52.414;9.784;2023-08-08T00:18:40;2.87;;;1.97;;
6251;SDS011;3159;52.414;9.784;2023-08-08T00:21:07;2.10;;;1.90;;
6251;SDS011;3159;52.414;9.784;2023-08-08T00:23:35;3.03;;;1.60;;
6251;SDS011;3159;52.414;9.784;2023-08-08T00:26:02;1.97;;;1.67;;
6251;SDS011;3159;52.414;9.784;2023-08-08T00:28:29;3.83;;;1.90;;
6251;SDS011;3159;52.414;9.784;2023-08-08T00:30:56;2.63;;;1.73;;
6251;SDS011;3159;52.414;9.784;2023-08-08T00:33:23;2.00;;;1.70;;
6251;SDS011;3159;52.414;9.784;2023-08-08T00:35:49;2.67;;;1.80;;
6251;SDS011;3159;52.414;9.784;2023-08-08T00:38:16;3.50;;;2.00;;
6251;SDS011;3159;52.414;9.784;2023-08-08T00:40:45;3.37;;;1.73;;
6251;SDS011;3159;52.414;9.784;2023-08-08T00:43:12;1.77;;;1.50;;
6251;SDS011;3159;52.414;9.784;2023-08-08T00:45:39;2.00;;;1.70;;
6251;SDS011;3159;52.414;9.784;2023-08-08T00:48:08;2.27;;;1.57;;
6251;SDS011;3159;52.414;9.784;2023-08-08T00:50:36;2.33;;;1.73;;
6251;SDS011;3159;52.414;9.784;2023-08-08T00:53:03;3.17;;;1.63;;
6251;SDS011;3159;52.414;9.784;2023-08-08T00:55:30;3.57;;;1.83;;
6251;SDS011;3159;52.414;9.784;2023-08-08T00:57:59;3.60;;;1.60;;
6251;SDS011;3159;52.414;9.784;2023-08-08T01:00:26;2.30;;;1.53;;
6251;SDS011;3159;52.414;9.784;2023-08-08T01:02:53;2.13;;;1.57;;
6251;SDS011;3159;52.414;9.784;2023-08-08T01:05:20;1.90;;;1.63;;
6251;SDS011;3159;52.414;9.784;2023-08-08T01:07:50;1.70;;;1.60;;
6251;SDS011;3159;52.414;9.784;2023-08-08T01:10:21;3.80;;;1.77;;
6251;SDS011;3159;52.414;9.784;2023-08-08T01:12:52;1.80;;;1.60;;
6251;SDS011;3159;52.414;9.784;2023-08-08T01:15:23;1.57;;;1.47;;
6251;SDS011;3159;52.414;9.784;2023-08-08T01:17:50;1.87;;;1.63;;
6251;SDS011;3159;52.414;9.784;2023-08-08T01:20:18;2.20;;;1.57;;
6251;SDS011;3159;52.414;9.784;2023-08-08T01:22:49;2.20;;;1.53;;
6251;SDS011;3159;52.414;9.784;2023-08-08T01:25:26;3.80;;;1.83;;
6251;SDS011;3159;52.414;9.784;2023-08-08T01:27:52;3.13;;;1.70;;
6251;SDS011;3159;52.414;9.784;2023-08-08T01:30:19;2.70;;;1.73;;
6251;SDS011;3159;52.414;9.784;2023-08-08T01:32:46;3.40;;;1.93;;
6251;SDS011;3159;52.414;9.784;2023-08-08T01:35:13;4.83;;;1.93;;
6251;SDS011;3159;52.414;9.784;2023-08-08T01:37:41;2.20;;;1.77;;
6251;SDS011;3159;52.414;9.784;2023-08-08T01:40:12;3.40;;;1.77;;
6251;SDS011;3159;52.414;9.784;2023-08-08T01:42:44;2.40;;;1.60;;
6251;SDS011;3159;52.414;9.784;2023-08-08T01:45:13;2.33;;;1.77;;
6251;SDS011;3159;52.414;9.784;2023-08-08T01:47:41;2.37;;;1.90;;
6251;SDS011;3159;52.414;9.784;2023-08-08T01:50:08;1.90;;;1.70;;
6251;SDS011;3159;52.414;9.784;2023-08-08T01:52:35;2.30;;;1.33;;
6251;SDS011;3159;52.414;9.784;2023-08-08T01:55:02;2.30;;;1.77;;
6251;SDS011;3159;52.414;9.784;2023-08-08T01:57:30;2.23;;;1.87;;
6251;SDS011;3159;52.414;9.784;2023-08-08T01:59:58;2.97;;;2.00;;
6251;SDS011;3159;52.414;9.784;2023-08-08T02:02:25;2.63;;;1.97;;
6251;SDS011;3159;52.414;9.784;2023-08-08T02:04:52;1.60;;;1.50;;
6251;SDS011;3159;52.414;9.784;2023-08-08T02:07:19;1.70;;;1.60;;
6251;SDS011;3159;52.414;9.784;2023-08-08T02:09:46;1.90;;;1.70;;
6251;SDS011;3159;52.414;9.784;2023-08-08T02:12:14;2.33;;;2.13;;
6251;SDS011;3159;52.414;9.784;2023-08-08T02:14:41;2.93;;;1.70;;
6251;SDS011;3159;52.414;9.784;2023-08-08T02:17:09;1.83;;;1.73;;
6251;SDS011;3159;52.414;9.784;2023-08-08T02:19:35;1.70;;;1.60;;
6251;SDS011;3159;52.414;9.784;2023-08-08T02:22:02;2.20;;;2.00;;
6251;SDS011;3159;52.414;9.784;2023-08-08T02:24:30;2.20;;;1.40;;
6251;SDS011;3159;52.414;9.784;2023-08-08T02:26:56;3.33;;;1.67;;
6251;SDS011;3159;52.414;9.784;2023-08-08T02:29:23;2.30;;;1.63;;
6251;SDS011;3159;52.414;9.784;2023-08-08T02:31:50;1.93;;;1.73;;
6251;SDS011;3159;52.414;9.784;2023-08-08T02:34:18;1.83;;;1.40;;
6251;SDS011;3159;52.414;9.784;2023-08-08T02:36:45;4.90;;;1.70;;
6251;SDS011;3159;52.414;9.784;2023-08-08T02:39:13;2.10;;;1.90;;
6251;SDS011;3159;52.414;9.784;2023-08-08T02:41:45;1.70;;;1.60;;
6251;SDS011;3159;52.414;9.784;2023-08-08T02:44:12;3.10;;;1.70;;
6251;SDS011;3159;52.414;9.784;2023-08-08T02:46:39;1.60;;;1.50;;
6251;SDS011;3159;52.414;9.784;2023-08-08T02:49:06;1.90;;;1.57;;
6251;SDS011;3159;52.414;9.784;2023-08-08T02:51:34;4.17;;;1.90;;
6251;SDS011;3159;52.414;9.784;2023-08-08T02:54:01;1.80;;;1.60;;
6251;SDS011;3159;52.414;9.784;2023-08-08T02:56:28;2.33;;;1.70;;
6251;SDS011;3159;52.414;9.784;2023-08-08T02:58:54;3.33;;;2.10;;
6251;SDS011;3159;52.414;9.784;2023-08-08T03:01:21;2.40;;;1.87;;
6251;SDS011;3159;52.414;9.784;2023-08-08T03:03:48;3.30;;;1.77;;
6251;SDS011;3159;52.414;9.784;2023-08-08T03:06:15;3.17;;;1.93;;
6251;SDS011;3159;52.414;9.784;2023-08-08T03:08:43;3.30;;;2.03;;
6251;SDS011;3159;52.414;9.784;2023-08-08T03:11:10;2.27;;;1.63;;
6251;SDS011;3159;52.414;9.784;2023-08-08T03:13:37;4.27;;;2.07;;
6251;SDS011;3159;52.414;9.784;2023-08-08T03:16:04;2.23;;;1.93;;
6251;SDS011;3159;52.414;9.784;2023-08-08T03:18:30;1.87;;;1.40;;
6251;SDS011;3159;52.414;9.784;2023-08-08T03:20:57;2.77;;;2.13;;
6251;SDS011;3159;52.414;9.784;2023-08-08T03:23:24;2.90;;;1.90;;
6251;SDS011;3159;52.414;9.784;2023-08-08T03:25:52;2.90;;;1.77;;
6251;SDS011;3159;52.414;9.784;2023-08-08T03:28:19;1.80;;;1.60;;
6251;SDS011;3159;52.414;9.784;2023-08-08T03:30:46;3.67;;;1.93;;
6251;SDS011;3159;52.414;9.784;2023-08-08T03:33:13;1.97;;;1.80;;
6251;SDS011;3159;52.414;9.784;2023-08-08T03:35:40;2.27;;;1.90;;
6251;SDS011;3159;52.414;9.784;2023-08-08T03:38:08;4.13;;;2.13;;
6251;SDS011;3159;52.414;9.784;2023-08-08T03:40:35;3.43;;;2.10;;
6251;SDS011;3159;52.414;9.784;2023-08-08T03:43:03;3.10;;;2.03;;
6251;SDS011;3159;52.414;9.784;2023-08-08T03:45:30;3.70;;;2.20;;
6251;SDS011;3159;52.414;9.784;2023-08-08T03:47:57;6.50;;;2.50;;
6251;SDS011;3159;52.414;9.784;2023-08-08T03:50:24;2.87;;;2.03;;
6251;SDS011;3159;52.414;9.784;2023-08-08T03:52:51;2.83;;;2.10;;
6251;SDS011;3159;52.414;9.784;2023-08-08T03:55:18;3.43;;;2.00;;
6251;SDS011;3159;52.414;9.784;2023-08-08T03:57:45;2.97;;;2.00;;
6251;SDS011;3159;52.414;9.784;2023-08-08T04:00:13;2.87;;;2.17;;
6251;SDS011;3159;52.414;9.784;2023-08-08T04:02:40;3.10;;;1.90;;
6251;SDS011;3159;52.414;9.784;2023-08-08T04:05:07;3.57;;;2.40;;
6251;SDS011;3159;52.414;9.784;2023-08-08T04:07:34;3.43;;;1.90;;
6251;SDS011;3159;52.414;9.784;2023-08-08T04:10:01;2.63;;;2.43;;
6251;SDS011;3159;52.414;9.784;2023-08-08T04:12:28;2.37;;;2.17;;
6251;SDS011;3159;52.414;9.784;2023-08-08T04:14:57;4.83;;;2.37;;
6251;SDS011;3159;52.414;9.784;2023-08-08T04:17:26;2.73;;;2.37;;
6251;SDS011;3159;52.414;9.784;2023-08-08T04:19:53;4.80;;;2.57;;
6251;SDS011;3159;52.414;9.784;2023-08-08T04:22:19;3.90;;;2.00;;
6251;SDS011;3159;52.414;9.784;2023-08-08T04:24:46;2.27;;;2.07;;
6251;SDS011;3159;52.414;9.784;2023-08-08T04:27:13;2.63;;;2.13;;
6251;SDS011;3159;52.414;9.784;2023-08-08T04:29:40;3.50;;;1.90;;
6251;SDS011;3159;52.414;9.784;2023-08-08T04:32:07;2.47;;;1.80;;
6251;SDS011;3159;52.414;9.784;2023-08-08T04:34:35;2.77;;;1.90;;
6251;SDS011;3159;52.414;9.784;2023-08-08T04:37:02;2.57;;;1.77;;
6251;SDS011;3159;52.414;9.784;2023-08-08T04:39:29;3.63;;;2.23;;
6251;SDS011;3159;52.414;9.784;2023-08-08T04:41:56;3.83;;;2.17;;
6251;SDS011;3159;52.414;9.784;2023-08-08T04:44:23;3.47;;;1.60;;
6251;SDS011;3159;52.414;9.784;2023-08-08T04:46:50;3.80;;;1.90;;
6251;SDS011;3159;52.414;9.784;2023-08-08T04:49:17;3.90;;;2.30;;
6251;SDS011;3159;52.414;9.784;2023-08-08T04:51:45;2.07;;;1.87;;
6251;SDS011;3159;52.414;9.784;2023-08-08T04:54:12;5.20;;;2.10;;
6251;SDS011;3159;52.414;9.784;2023-08-08T04:56:39;2.73;;;2.07;;
6251;SDS011;3159;52.414;9.784;2023-08-08T04:59:05;3.60;;;2.20;;
6251;SDS011;3159;52.414;9.784;2023-08-08T05:01:32;2.20;;;1.97;;
6251;SDS011;3159;52.414;9.784;2023-08-08T05:03:59;2.53;;;1.87;;
6251;SDS011;3159;52.414;9.784;2023-08-08T05:06:26;2.57;;;2.20;;
6251;SDS011;3159;52.414;9.784;2023-08-08T05:08:55;3.43;;;1.80;;
6251;SDS011;3159;52.414;9.784;2023-08-08T05:11:22;3.33;;;2.00;;
6251;SDS011;3159;52.414;9.784;2023-08-08T05:13:49;2.40;;;2.17;;
6251;SDS011;3159;52.414;9.784;2023-08-08T05:16:17;4.47;;;2.17;;
6251;SDS011;3159;52.414;9.784;2023-08-08T05:18:44;4.43;;;2.20;;
6251;SDS011;3159;52.414;9.784;2023-08-08T05:21:11;2.90;;;2.07;;
6251;SDS011;3159;52.414;9.784;2023-08-08T05:23:38;2.17;;;1.90;;
6251;SDS011;3159;52.414;9.784;2023-08-08T05:26:06;2.73;;;1.90;;
6251;SDS011;3159;52.414;9.784;2023-08-08T05:28:33;3.23;;;2.43;;
6251;SDS011;3159;52.414;9.784;2023-08-08T05:31:00;2.23;;;2.03;;
6251;SDS011;3159;52.414;9.784;2023-08-08T05:33:27;2.77;;;1.87;;
6251;SDS011;3159;52.414;9.784;2023-08-08T05:35:54;4.60;;;2.00;;
6251;SDS011;3159;52.414;9.784;2023-08-08T05:38:21;3.43;;;2.50;;
6251;SDS011;3159;52.414;9.784;2023-08-08T05:40:47;5.37;;;2.10;;
6251;SDS011;3159;52.414;9.784;2023-08-08T05:43:16;3.60;;;2.27;;
6251;SDS011;3159;52.414;9.784;2023-08-08T05:45:44;2.33;;;2.03;;
6251;SDS011;3159;52.414;9.784;2023-08-08T05:48:11;3.20;;;2.20;;
6251;SDS011;3159;52.414;9.784;2023-08-08T05:50:38;4.73;;;2.17;;
6251;SDS011;3159;52.414;9.784;2023-08-08T05:53:05;2.87;;;2.23;;
6251;SDS011;3159;52.414;9.784;2023-08-08T05:55:32;5.57;;;2.43;;
6251;SDS011;3159;52.414;9.784;2023-08-08T05:57:59;4.57;;;2.10;;
6251;SDS011;3159;52.414;9.784;2023-08-08T06:00:27;4.80;;;2.50;;
6251;SDS011;3159;52.414;9.784;2023-08-08T06:02:54;3.37;;;2.23;;
6251;SDS011;3159;52.414;9.784;2023-08-08T06:05:21;2.63;;;2.33;;
6251;SDS011;3159;52.414;9.784;2023-08-08T06:07:49;4.87;;;2.37;;
6251;SDS011;3159;52.414;9.784;2023-08-08T06:10:16;3.93;;;2.43;;
6251;SDS011;3159;52.414;9.784;2023-08-08T06:12:43;3.37;;;2.20;;
6251;SDS011;3159;52.414;9.784;2023-08-08T06:15:10;5.03;;;2.40;;
6251;SDS011;3159;52.414;9.784;2023-08-08T06:17:38;3.13;;;1.97;;
6251;SDS011;3159;52.414;9.784;2023-08-08T06:20:05;3.07;;;2.23;;
6251;SDS011;3159;52.414;9.784;2023-08-08T06:22:33;4.90;;;2.40;;
6251;SDS011;3159;52.414;9.784;2023-08-08T06:25:00;3.83;;;2.43;;
6251;SDS011;3159;52.414;9.784;2023-08-08T06:27:26;3.37;;;2.10;;
6251;SDS011;3159;52.414;9.784;2023-08-08T06:29:53;2.60;;;2.00;;
6251;SDS011;3159;52.414;9.784;2023-08-08T06:32:21;3.33;;;2.40;;
6251;SDS011;3159;52.414;9.784;2023-08-08T06:34:49;3.30;;;2.37;;
6251;SDS011;3159;52.414;9.784;2023-08-08T06:37:16;5.50;;;2.70;;
6251;SDS011;3159;52.414;9.784;2023-08-08T06:39:42;4.17;;;2.60;;
6251;SDS011;3159;52.414;9.784;2023-08-08T06:42:09;3.87;;;2.47;;
6251;SDS011;3159;52.414;9.784;2023-08-08T06:44:40;4.20;;;2.57;;
6251;SDS011;3159;52.414;9.784;2023-08-08T06:47:08;2.80;;;2.40;;
6251;SDS011;3159;52.414;9.784;2023-08-08T06:49:36;5.83;;;2.60;;
6251;SDS011;3159;52.414;9.784;2023-08-08T06:52:04;4.03;;;2.50;;
6251;SDS011;3159;52.414;9.784;2023-08-08T06:54:32;3.40;;;2.87;;
6251;SDS011;3159;52.414;9.784;2023-08-08T06:56:59;5.27;;;2.60;;
6251;SDS011;3159;52.414;9.784;2023-08-08T06:59:27;4.07;;;2.80;;
6251;SDS011;3159;52.414;9.784;2023-08-08T07:01:54;2.80;;;2.40;;
6251;SDS011;3159;52.414;9.784;2023-08-08T07:04:21;5.27;;;2.43;;
6251;SDS011;3159;52.414;9.784;2023-08-08T07:06:48;2.57;;;2.37;;
6251;SDS011;3159;52.414;9.784;2023-08-08T07:09:16;2.60;;;2.20;;
6251;SDS011;3159;52.414;9.784;2023-08-08T07:11:43;4.90;;;2.43;;
6251;SDS011;3159;52.414;9.784;2023-08-08T07:14:11;3.40;;;2.03;;
6251;SDS011;3159;52.414;9.784;2023-08-08T07:16:40;6.80;;;2.23;;
6251;SDS011;3159;52.414;9.784;2023-08-08T07:19:07;7.57;;;2.50;;
6251;SDS011;3159;52.414;9.784;2023-08-08T07:21:34;6.17;;;2.20;;
6251;SDS011;3159;52.414;9.784;2023-08-08T07:24:01;3.07;;;2.20;;
6251;SDS011;3159;52.414;9.784;2023-08-08T07:26:29;3.33;;;2.33;;
6251;SDS011;3159;52.414;9.784;2023-08-08T07:28:56;3.70;;;2.27;;
6251;SDS011;3159;52.414;9.784;2023-08-08T07:31:24;5.00;;;2.47;;
6251;SDS011;3159;52.414;9.784;2023-08-08T07:33:51;4.30;;;2.07;;
6251;SDS011;3159;52.414;9.784;2023-08-08T07:36:17;2.20;;;1.97;;
6251;SDS011;3159;52.414;9.784;2023-08-08T07:38:44;4.60;;;1.70;;
6251;SDS011;3159;52.414;9.784;2023-08-08T07:41:13;5.83;;;2.23;;
6251;SDS011;3159;52.414;9.784;2023-08-08T07:43:41;5.47;;;1.73;;
6251;SDS011;3159;52.414;9.784;2023-08-08T07:46:08;2.77;;;2.07;;
6251;SDS011;3159;52.414;9.784;2023-08-08T07:48:35;3.47;;;1.87;;
6251;SDS011;3159;52.414;9.784;2023-08-08T07:51:02;5.90;;;2.07;;
6251;SDS011;3159;52.414;9.784;2023-08-08T07:53:29;2.37;;;1.50;;
6251;SDS011;3159;52.414;9.784;2023-08-08T07:55:56;2.90;;;1.90;;
6251;SDS011;3159;52.414;9.784;2023-08-08T07:58:23;2.70;;;1.67;;
6251;SDS011;3159;52.414;9.784;2023-08-08T08:00:52;4.03;;;1.90;;
6251;SDS011;3159;52.414;9.784;2023-08-08T08:03:19;2.27;;;1.60;;
6251;SDS011;3159;52.414;9.784;2023-08-08T08:05:46;3.47;;;1.70;;
6251;SDS011;3159;52.414;9.784;2023-08-08T08:08:13;3.63;;;1.40;;
6251;SDS011;3159;52.414;9.784;2023-08-08T08:10:40;2.83;;;2.00;;
6251;SDS011;3159;52.414;9.784;2023-08-08T08:13:07;3.63;;;1.67;;
6251;SDS011;3159;52.414;9.784;2023-08-08T08:15:35;2.90;;;1.63;;
6251;SDS011;3159;52.414;9.784;2023-08-08T08:18:04;4.67;;;1.70;;
6251;SDS011;3159;52.414;9.784;2023-08-08T08:20:31;5.50;;;2.00;;
6251;SDS011;3159;52.414;9.784;2023-08-08T08:22:58;1.80;;;1.40;;
6251;SDS011;3159;52.414;9.784;2023-08-08T08:25:25;3.03;;;1.60;;
6251;SDS011;3159;52.414;9.784;2023-08-08T08:27:51;5.03;;;1.63;;
6251;SDS011;3159;52.414;9.784;2023-08-08T08:30:18;3.93;;;1.80;;
6251;SDS011;3159;52.414;9.784;2023-08-08T08:32:47;3.33;;;1.53;;
6251;SDS011;3159;52.414;9.784;2023-08-08T08:35:16;5.00;;;1.60;;
6251;SDS011;3159;52.414;9.784;2023-08-08T08:37:43;2.57;;;1.60;;
6251;SDS011;3159;52.414;9.784;2023-08-08T08:40:10;3.70;;;1.30;;
6251;SDS011;3159;52.414;9.784;2023-08-08T08:42:37;2.63;;;1.30;;
6251;SDS011;3159;52.414;9.784;2023-08-08T08:45:06;2.27;;;1.50;;
6251;SDS011;3159;52.414;9.784;2023-08-08T08:47:35;3.43;;;1.67;;
6251;SDS011;3159;52.414;9.784;2023-08-08T08:50:03;3.10;;;1.40;;
6251;SDS011;3159;52.414;9.784;2023-08-08T08:52:32;5.30;;;1.37;;
6251;SDS011;3159;52.414;9.784;2023-08-08T08:55:00;3.10;;;1.40;;
6251;SDS011;3159;52.414;9.784;2023-08-08T08:57:27;2.70;;;1.70;;
6251;SDS011;3159;52.414;9.784;2023-08-08T08:59:55;2.17;;;1.50;;
6251;SDS011;3159;52.414;9.784;2023-08-08T09:02:25;2.33;;;1.23;;
6251;SDS011;3159;52.414;9.784;2023-08-08T09:04:52;2.80;;;1.23;;
6251;SDS011;3159;52.414;9.784;2023-08-08T09:07:20;2.87;;;1.53;;
6251;SDS011;3159;52.414;9.784;2023-08-08T09:09:52;2.67;;;1.13;;
6251;SDS011;3159;52.414;9.784;2023-08-08T09:12:19;1.90;;;1.30;;
6251;SDS011;3159;52.414;9.784;2023-08-08T09:14:46;2.17;;;1.27;;
6251;SDS011;3159;52.414;9.784;2023-08-08T09:17:14;3.37;;;1.50;;
6251;SDS011;3159;52.414;9.784;2023-08-08T09:19:42;4.10;;;1.67;;
6251;SDS011;3159;52.414;9.784;2023-08-08T09:22:09;2.83;;;1.50;;
6251;SDS011;3159;52.414;9.784;2023-08-08T09:24:38;4.20;;;1.50;;
6251;SDS011;3159;52.414;9.784;2023-08-08T09:27:07;2.93;;;1.60;;
6251;SDS011;3159;52.414;9.784;2023-08-08T09:29:35;3.73;;;1.67;;
6251;SDS011;3159;52.414;9.784;2023-08-08T09:32:02;2.10;;;1.50;;
6251;SDS011;3159;52.414;9.784;2023-08-08T09:34:30;4.73;;;1.60;;
6251;SDS011;3159;52.414;9.784;2023-08-08T09:36:57;4.27;;;2.07;;
6251;SDS011;3159;52.414;9.784;2023-08-08T09:39:25;2.77;;;1.67;;
6251;SDS011;3159;52.414;9.784;2023-08-08T09:41:52;2.47;;;1.47;;
6251;SDS011;3159;52.414;9.784;2023-08-08T09:44:23;4.50;;;1.90;;
6251;SDS011;3159;52.414;9.784;2023-08-08T09:46:51;2.63;;;1.73;;
6251;SDS011;3159;52.414;9.784;2023-08-08T09:49:18;2.87;;;1.50;;
6251;SDS011;3159;52.414;9.784;2023-08-08T09:51:47;4.43;;;1.60;;
6251;SDS011;3159;52.414;9.784;2023-08-08T09:54:15;3.50;;;1.63;;
6251;SDS011;3159;52.414;9.784;2023-08-08T09:56:42;1.43;;;1.30;;
6251;SDS011;3159;52.414;9.784;2023-08-08T09:59:10;2.67;;;1.57;;
6251;SDS011;3159;52.414;9.784;2023-08-08T10:01:40;3.93;;;1.63;;
6251;SDS011;3159;52.414;9.784;2023-08-08T10:04:07;3.50;;;2.00;;
6251;SDS011;3159;52.414;9.784;2023-08-08T10:06:34;4.00;;;1.90;;
6251;SDS011;3159;52.414;9.784;2023-08-08T10:09:01;4.47;;;2.27;;
6251;SDS011;3159;52.414;9.784;2023-08-08T10:11:29;2.60;;;1.67;;
6251;SDS011;3159;52.414;9.784;2023-08-08T10:13:57;3.20;;;1.73;;
6251;SDS011;3159;52.414;9.784;2023-08-08T10:16:27;3.50;;;1.70;;
6251;SDS011;3159;52.414;9.784;2023-08-08T10:18:56;1.87;;;1.57;;
6251;SDS011;3159;52.414;9.784;2023-08-08T10:21:25;2.57;;;1.70;;
6251;SDS011;3159;52.414;9.784;2023-08-08T10:24:01;3.53;;;2.10;;
6251;SDS011;3159;52.414;9.784;2023-08-08T10:26:32;2.97;;;2.00;;
6251;SDS011;3159;52.414;9.784;2023-08-08T10:28:59;3.23;;;1.90;;
6251;SDS011;3159;52.414;9.784;2023-08-08T10:31:27;4.20;;;2.00;;
6251;SDS011;3159;52.414;9.784;2023-08-08T10:34:03;5.10;;;2.20;;
6251;SDS011;3159;52.414;9.784;2023-08-08T10:39:20;2.67;;;1.70;;
6251;SDS011;3159;52.414;9.784;2023-08-08T10:41:48;2.03;;;1.50;;
6251;SDS011;3159;52.414;9.784;2023-08-08T10:44:22;3.23;;;1.80;;
6251;SDS011;3159;52.414;9.784;2023-08-08T10:46:50;1.80;;;1.47;;
6251;SDS011;3159;52.414;9.784;2023-08-08T10:49:20;3.00;;;1.60;;
6251;SDS011;3159;52.414;9.784;2023-08-08T10:51:49;2.53;;;1.63;;
6251;SDS011;3159;52.414;9.784;2023-08-08T10:54:18;4.10;;;1.60;;
6251;SDS011;3159;52.414;9.784;2023-08-08T10:56:49;3.23;;;1.60;;
6251;SDS011;3159;52.414;9.784;2023-08-08T10:59:17;4.63;;;1.40;;
6251;SDS011;3159;52.414;9.784;2023-08-08T11:01:46;2.13;;;1.43;;
6251;SDS011;3159;52.414;9.784;2023-08-08T11:04:14;3.70;;;1.30;;
6251;SDS011;3159;52.414;9.784;2023-08-08T11:06:45;1.67;;;1.23;;
6251;SDS011;3159;52.414;9.784;2023-08-08T11:09:15;2.80;;;1.00;;
6251;SDS011;3159;52.414;9.784;2023-08-08T11:11:42;2.77;;;1.00;;
6251;SDS011;3159;52.414;9.784;2023-08-08T11:14:14;2.63;;;1.30;;
6251;SDS011;3159;52.414;9.784;2023-08-08T11:16:43;1.90;;;1.10;;
6251;SDS011;3159;52.414;9.784;2023-08-08T11:19:11;1.97;;;1.20;;
6251;SDS011;3159;52.414;9.784;2023-08-08T11:21:39;3.93;;;1.30;;
6251;SDS011;3159;52.414;9.784;2023-08-08T11:24:09;2.93;;;1.30;;
6251;SDS011;3159;52.414;9.784;2023-08-08T11:26:37;2.73;;;1.33;;
6251;SDS011;3159;52.414;9.784;2023-08-08T11:29:05;2.67;;;1.00;;
6251;SDS011;3159;52.414;9.784;2023-08-08T11:31:33;3.07;;;1.10;;
6251;SDS011;3159;52.414;9.784;2023-08-08T11:34:01;1.97;;;0.93;;
6251;SDS011;3159;52.414;9.784;2023-08-08T11:36:29;2.93;;;0.97;;
6251;SDS011;3159;52.414;9.784;2023-08-08T11:38:58;2.07;;;0.97;;
6251;SDS011;3159;52.414;9.784;2023-08-08T11:41:30;2.10;;;1.07;;
6251;SDS011;3159;52.414;9.784;2023-08-08T11:43:57;2.60;;;1.17;;
6251;SDS011;3159;52.414;9.784;2023-08-08T11:46:25;1.10;;;1.00;;
6251;SDS011;3159;52.414;9.784;2023-08-08T11:48:52;1.93;;;1.10;;
6251;SDS011;3159;52.414;9.784;2023-08-08T11:51:19;2.23;;;1.07;;
6251;SDS011;3159;52.414;9.784;2023-08-08T11:53:49;2.40;;;0.90;;
6251;SDS011;3159;52.414;9.784;2023-08-08T11:56:17;1.77;;;0.97;;
6251;SDS011;3159;52.414;9.784;2023-08-08T11:58:46;2.07;;;1.00;;
6251;SDS011;3159;52.414;9.784;2023-08-08T12:01:15;1.77;;;1.10;;
6251;SDS011;3159;52.414;9.784;2023-08-08T12:03:42;2.43;;;1.00;;
6251;SDS011;3159;52.414;9.784;2023-08-08T12:06:12;2.10;;;1.50;;
6251;SDS011;3159;52.414;9.784;2023-08-08T12:08:40;3.27;;;1.40;;
6251;SDS011;3159;52.414;9.784;2023-08-08T12:11:08;2.03;;;1.47;;
6251;SDS011;3159;52.414;9.784;2023-08-08T12:13:36;1.17;;;1.03;;
6251;SDS011;3159;52.414;9.784;2023-08-08T12:16:06;2.30;;;1.20;;
6251;SDS011;3159;52.414;9.784;2023-08-08T12:18:35;1.10;;;0.87;;
6251;SDS011;3159;52.414;9.784;2023-08-08T12:21:03;3.37;;;1.33;;
6251;SDS011;3159;52.414;9.784;2023-08-08T12:23:30;2.17;;;1.13;;
6251;SDS011;3159;52.414;9.784;2023-08-08T12:25:58;1.47;;;1.37;;
6251;SDS011;3159;52.414;9.784;2023-08-08T12:28:25;1.43;;;1.00;;
6251;SDS011;3159;52.414;9.784;2023-08-08T12:30:52;1.77;;;1.20;;
6251;SDS011;3159;52.414;9.784;2023-08-08T12:33:20;1.83;;;1.10;;
6251;SDS011;3159;52.414;9.784;2023-08-08T12:35:47;2.47;;;1.00;;
6251;SDS011;3159;52.414;9.784;2023-08-08T12:38:15;1.97;;;1.07;;
6251;SDS011;3159;52.414;9.784;2023-08-08T12:40:42;3.90;;;1.37;;
6251;SDS011;3159;52.414;9.784;2023-08-08T12:43:09;1.17;;;0.90;;
6251;SDS011;3159;52.414;9.784;2023-08-08T12:45:38;1.40;;;1.20;;
6251;SDS011;3159;52.414;9.784;2023-08-08T12:48:05;1.30;;;1.10;;
6251;SDS011;3159;52.414;9.784;2023-08-08T12:50:33;4.97;;;1.20;;
6251;SDS011;3159;52.414;9.784;2023-08-08T12:53:01;3.53;;;1.00;;
6251;SDS011;3159;52.414;9.784;2023-08-08T12:55:29;2.03;;;1.10;;
6251;SDS011;3159;52.414;9.784;2023-08-08T12:57:56;3.20;;;1.10;;
6251;SDS011;3159;52.414;9.784;2023-08-08T13:00:22;2.20;;;1.00;;
6251;SDS011;3159;52.414;9.784;2023-08-08T13:02:49;2.60;;;1.40;;
6251;SDS011;3159;52.414;9.784;2023-08-08T13:05:17;2.10;;;1.10;;
6251;SDS011;3159;52.414;9.784;2023-08-08T13:07:45;2.80;;;1.13;;
6251;SDS011;3159;52.414;9.784;2023-08-08T13:10:12;2.97;;;1.00;;
6251;SDS011;3159;52.414;9.784;2023-08-08T13:12:39;3.67;;;1.00;;
6251;SDS011;3159;52.414;9.784;2023-08-08T13:15:07;1.77;;;0.90;;
6251;SDS011;3159;52.414;9.784;2023-08-08T13:17:34;2.90;;;1.13;;
6251;SDS011;3159;52.414;9.784;2023-08-08T13:20:01;1.40;;;0.80;;
6251;SDS011;3159;52.414;9.784;2023-08-08T13:22:28;2.47;;;0.90;;
6251;SDS011;3159;52.414;9.784;2023-08-08T13:24:56;2.27;;;1.00;;
6251;SDS011;3159;52.414;9.784;2023-08-08T13:27:23;2.67;;;1.00;;
6251;SDS011;3159;52.414;9.784;2023-08-08T13:29:50;2.93;;;0.90;;
6251;SDS011;3159;52.414;9.784;2023-08-08T13:32:17;1.67;;;1.00;;
6251;SDS011;3159;52.414;9.784;2023-08-08T13:34:43;1.70;;;0.90;;
6251;SDS011;3159;52.414;9.784;2023-08-08T13:37:10;2.47;;;1.00;;
6251;SDS011;3159;52.414;9.784;2023-08-08T13:39:37;1.27;;;0.77;;
6251;SDS011;3159;52.414;9.784;2023-08-08T13:42:06;1.73;;;0.80;;
6251;SDS011;3159;52.414;9.784;2023-08-08T13:44:35;1.97;;;0.80;;
6251;SDS011;3159;52.414;9.784;2023-08-08T13:47:01;1.10;;;0.90;;
6251;SDS011;3159;52.414;9.784;2023-08-08T13:49:28;1.07;;;0.70;;
6251;SDS011;3159;52.414;9.784;2023-08-08T13:51:55;1.10;;;0.80;;
6251;SDS011;3159;52.414;9.784;2023-08-08T13:54:22;0.73;;;0.73;;
6251;SDS011;3159;52.414;9.784;2023-08-08T13:56:49;1.30;;;1.00;;
6251;SDS011;3159;52.414;9.784;2023-08-08T13:59:17;1.40;;;1.00;;
6251;SDS011;3159;52.414;9.784;2023-08-08T14:01:44;0.77;;;0.70;;
6251;SDS011;3159;52.414;9.784;2023-08-08T14:04:11;2.17;;;0.97;;
6251;SDS011;3159;52.414;9.784;2023-08-08T14:06:38;3.17;;;1.30;;
6251;SDS011;3159;52.414;9.784;2023-08-08T14:09:05;1.53;;;1.00;;
6251;SDS011;3159;52.414;9.784;2023-08-08T14:11:32;1.70;;;1.00;;
6251;SDS011;3159;52.414;9.784;2023-08-08T14:13:59;2.40;;;0.90;;
6251;SDS011;3159;52.414;9.784;2023-08-08T14:16:27;1.67;;;1.03;;
6251;SDS011;3159;52.414;9.784;2023-08-08T14:18:54;2.00;;;1.20;;
6251;SDS011;3159;52.414;9.784;2023-08-08T14:21:21;1.77;;;1.07;;
6251;SDS011;3159;52.414;9.784;2023-08-08T14:23:48;1.90;;;1.30;;
6251;SDS011;3159;52.414;9.784;2023-08-08T14:26:15;1.80;;;1.33;;
6251;SDS011;3159;52.414;9.784;2023-08-08T14:28:41;1.63;;;1.20;;
6251;SDS011;3159;52.414;9.784;2023-08-08T14:31:08;3.93;;;1.20;;
6251;SDS011;3159;52.414;9.784;2023-08-08T14:33:36;2.20;;;1.40;;
6251;SDS011;3159;52.414;9.784;2023-08-08T14:36:04;2.40;;;1.00;;
6251;SDS011;3159;52.414;9.784;2023-08-08T14:38:33;1.30;;;0.67;;
6251;SDS011;3159;52.414;9.784;2023-08-08T14:41:01;3.63;;;1.30;;
6251;SDS011;3159;52.414;9.784;2023-08-08T14:43:28;3.20;;;1.00;;
6251;SDS011;3159;52.414;9.784;2023-08-08T14:45:54;3.17;;;1.20;;
6251;SDS011;3159;52.414;9.784;2023-08-08T14:48:21;2.33;;;0.80;;
6251;SDS011;3159;52.414;9.784;2023-08-08T14:50:49;0.93;;;0.63;;
6251;SDS011;3159;52.414;9.784;2023-08-08T14:53:16;1.40;;;0.50;;
6251;SDS011;3159;52.414;9.784;2023-08-08T14:55:43;1.13;;;0.80;;
6251;SDS011;3159;52.414;9.784;2023-08-08T14:58:10;2.33;;;0.80;;
6251;SDS011;3159;52.414;9.784;2023-08-08T15:00:37;1.73;;;0.93;;
6251;SDS011;3159;52.414;9.784;2023-08-08T15:03:04;2.37;;;0.97;;
6251;SDS011;3159;52.414;9.784;2023-08-08T15:05:31;0.77;;;0.70;;
6251;SDS011;3159;52.414;9.784;2023-08-08T15:07:59;0.73;;;0.60;;
6251;SDS011;3159;52.414;9.784;2023-08-08T15:10:26;1.17;;;0.80;;
6251;SDS011;3159;52.414;9.784;2023-08-08T15:12:53;1.40;;;0.70;;
6251;SDS011;3159;52.414;9.784;2023-08-08T15:15:20;1.50;;;0.50;;
6251;SDS011;3159;52.414;9.784;2023-08-08T15:17:48;0.97;;;0.67;;
6251;SDS011;3159;52.414;9.784;2023-08-08T15:20:15;2.37;;;0.70;;